Airfield :
LOGIN :

Register | Disclaimer

   EN    FR    IT 

 










Legend :    VFR   Marginal VFR   IFR   Intensive IFR   Very Intensive IFR
Visi :
Ceiling :
>= 8 km
>= 3000ft
5 to 8 km
1000 to 3000 ft
1500m to 5 km
500 to 1000 ft
800 to 1500m
200 to 500 ft
< 800m
< 200 ft
Symbols :   Thunderstorms  Fog  Heavy snow  Heavy precipitations  Wind > 20 kt
SIGMETs :     Misc.  Thunderstorms  Icing  Turbulence  Mountain Waves  Volcanic Ashes







- Airport Elevation : 72 ft
- IATA code : UDE


EHVK - Volkel Airbase

CURRENT METAR :
  • 281155Z AUTO 26004KT 190V290 9999 BKN077 OVC083 11/05 Q1013 REDZ BLU

EXPIRED METARs :
  • 281140Z AUTO 25005KT 220V280 9999 FEW010 SCT043 BKN068 10/05 Q1013 BLU
  • 281125Z AUTO 25007KT 220V290 9999 -RA FEW022 BKN037 OVC041 09/04 Q1013 BLU
  • 281055Z AUTO 33004KT 320V080 9999 BKN031 BKN037 BKN063 10/02 Q1013 BLU
  • 281025Z AUTO 26003KT 210V340 9999 FEW026 SCT030 BKN045 10/04 Q1013 REDZ BLU
  • 281012Z AUTO 27004KT 200V320 9999 SCT042 BKN047 OVC052 10/04 Q1013 BLU
  • 281005Z AUTO 29004KT 230V330 9999 -RA FEW020 FEW022CB SCT029 BKN034 10/04 Q1013 BLU
  • 280955Z AUTO 26005KT 230V320 9999 -RA FEW025 SCT029 BKN032 10/04 Q1013 BLU
  • 280944Z AUTO 27006KT 220V320 9999 FEW023 BKN062 OVC070 10/04 Q1013 BLU
  • 280931Z AUTO VRB04KT 9999 SCT023 BKN026 BKN038 10/05 Q1013 WHT
  • 280925Z AUTO 27004KT 220V310 9999 FEW024 SCT033 BKN063 10/05 Q1013 BLU
  • 280908Z AUTO 26007KT 200V290 9999 BKN021 BKN027 BKN041 10/05 Q1013 WHT
  • 280904Z AUTO 26007KT 200V290 9999 SCT022 SCT026 BKN030 10/04 Q1013 WHT

Expired Forecast.
No reported NOTAMs for that airfield.



MET'MAP, your aeronautical weather chart ! - Copyright ORBIFLY December 2007 - Disclaimer

ORBIFLY MET'MAP TEAM :

Programming & Development : Alexandra Zaïnal
Concept & Development : Baudouin d'Aumeries
Co-Development & Prog : Marc-Olivier Méhu
Technical & hardware support : Manuel Goepfert

Contact : metmap@orbifly.com




SOURCES & CREDITS :

   NOAA